sensor_id;sensor_type;location;lat;lon;timestamp;pressure;altitude;pressure_sealevel;temperature;humidity
69836;BME280;57132;51.972;4.450;2023-03-25T00:00:19;100047.72;;;8.67;100.00
69836;BME280;57132;51.972;4.450;2023-03-25T00:02:47;100038.19;;;8.64;100.00
69836;BME280;57132;51.972;4.450;2023-03-25T00:05:14;100084.75;;;8.70;100.00
69836;BME280;57132;51.972;4.450;2023-03-25T00:07:41;100064.22;;;8.72;100.00
69836;BME280;57132;51.972;4.450;2023-03-25T00:10:08;100044.75;;;8.71;100.00
69836;BME280;57132;51.972;4.450;2023-03-25T00:12:33;100051.13;;;8.69;100.00
69836;BME280;57132;51.972;4.450;2023-03-25T00:14:59;100031.03;;;8.65;100.00
69836;BME280;57132;51.972;4.450;2023-03-25T00:17:26;100069.25;;;8.64;100.00
69836;BME280;57132;51.972;4.450;2023-03-25T00:19:53;100035.63;;;8.62;100.00
69836;BME280;57132;51.972;4.450;2023-03-25T00:22:20;100067.78;;;8.59;100.00
69836;BME280;57132;51.972;4.450;2023-03-25T00:24:45;100036.59;;;8.61;100.00
69836;BME280;57132;51.972;4.450;2023-03-25T00:27:11;100034.16;;;8.58;100.00
69836;BME280;57132;51.972;4.450;2023-03-25T00:29:39;100042.13;;;8.58;100.00
69836;BME280;57132;51.972;4.450;2023-03-25T00:32:04;100027.88;;;8.59;100.00
69836;BME280;57132;51.972;4.450;2023-03-25T00:34:30;100035.00;;;8.59;100.00
69836;BME280;57132;51.972;4.450;2023-03-25T00:36:55;100011.66;;;8.62;100.00
69836;BME280;57132;51.972;4.450;2023-03-25T00:39:20;100074.66;;;8.62;100.00
69836;BME280;57132;51.972;4.450;2023-03-25T00:41:46;100029.34;;;8.64;100.00
69836;BME280;57132;51.972;4.450;2023-03-25T00:44:12;100037.56;;;8.60;100.00
69836;BME280;57132;51.972;4.450;2023-03-25T00:46:38;100047.34;;;8.60;100.00
69836;BME280;57132;51.972;4.450;2023-03-25T00:49:04;100036.81;;;8.58;100.00
69836;BME280;57132;51.972;4.450;2023-03-25T00:51:29;100028.13;;;8.56;100.00
69836;BME280;57132;51.972;4.450;2023-03-25T00:53:58;100038.00;;;8.54;100.00
69836;BME280;57132;51.972;4.450;2023-03-25T00:56:28;100062.47;;;8.59;100.00
69836;BME280;57132;51.972;4.450;2023-03-25T00:58:54;100026.06;;;8.60;100.00
69836;BME280;57132;51.972;4.450;2023-03-25T01:01:23;100024.47;;;8.57;100.00
69836;BME280;57132;51.972;4.450;2023-03-25T01:03:52;100035.19;;;8.45;100.00
69836;BME280;57132;51.972;4.450;2023-03-25T01:06:24;100035.91;;;8.47;100.00
69836;BME280;57132;51.972;4.450;2023-03-25T01:08:53;100015.00;;;8.42;100.00
69836;BME280;57132;51.972;4.450;2023-03-25T01:11:22;100047.66;;;8.44;100.00
69836;BME280;57132;51.972;4.450;2023-03-25T01:13:48;100047.66;;;8.44;100.00
69836;BME280;57132;51.972;4.450;2023-03-25T01:16:13;100035.41;;;8.42;100.00
69836;BME280;57132;51.972;4.450;2023-03-25T01:18:38;100044.59;;;8.37;100.00
69836;BME280;57132;51.972;4.450;2023-03-25T01:21:05;100028.19;;;8.31;100.00
69836;BME280;57132;51.972;4.450;2023-03-25T01:23:31;100037.63;;;8.24;100.00
69836;BME280;57132;51.972;4.450;2023-03-25T01:25:56;100035.81;;;8.24;100.00
69836;BME280;57132;51.972;4.450;2023-03-25T01:28:21;100035.41;;;8.18;100.00
69836;BME280;57132;51.972;4.450;2023-03-25T01:30:47;100021.13;;;8.19;100.00
69836;BME280;57132;51.972;4.450;2023-03-25T01:33:12;100012.66;;;8.13;100.00
69836;BME280;57132;51.972;4.450;2023-03-25T01:35:38;100035.84;;;8.11;100.00
69836;BME280;57132;51.972;4.450;2023-03-25T01:38:03;100036.59;;;8.13;100.00
69836;BME280;57132;51.972;4.450;2023-03-25T01:40:29;100081.56;;;8.17;100.00
69836;BME280;57132;51.972;4.450;2023-03-25T01:42:57;100032.25;;;8.12;100.00
69836;BME280;57132;51.972;4.450;2023-03-25T01:45:30;100025.19;;;8.11;100.00
69836;BME280;57132;51.972;4.450;2023-03-25T01:48:07;100007.78;;;8.07;100.00
69836;BME280;57132;51.972;4.450;2023-03-25T01:50:37;100045.88;;;8.08;100.00
69836;BME280;57132;51.972;4.450;2023-03-25T01:53:05;100017.75;;;8.17;100.00
69836;BME280;57132;51.972;4.450;2023-03-25T01:55:33;100030.84;;;8.20;100.00
69836;BME280;57132;51.972;4.450;2023-03-25T01:58:02;100004.47;;;8.17;100.00
69836;BME280;57132;51.972;4.450;2023-03-25T02:00:29;100024.66;;;8.19;100.00
69836;BME280;57132;51.972;4.450;2023-03-25T02:02:57;100034.34;;;8.20;100.00
69836;BME280;57132;51.972;4.450;2023-03-25T02:05:30;100009.44;;;8.21;100.00
69836;BME280;57132;51.972;4.450;2023-03-25T02:07:58;99991.81;;;8.20;100.00
69836;BME280;57132;51.972;4.450;2023-03-25T02:10:28;100008.47;;;8.22;100.00
69836;BME280;57132;51.972;4.450;2023-03-25T02:12:53;100005.19;;;8.19;100.00
69836;BME280;57132;51.972;4.450;2023-03-25T02:15:19;100015.72;;;8.20;100.00
69836;BME280;57132;51.972;4.450;2023-03-25T02:17:53;100021.03;;;8.20;100.00
69836;BME280;57132;51.972;4.450;2023-03-25T02:28:57;100009.31;;;8.23;100.00
69836;BME280;57132;51.972;4.450;2023-03-25T02:34:13;99992.19;;;8.27;100.00
69836;BME280;57132;51.972;4.450;2023-03-25T02:47:21;99989.06;;;8.33;100.00
69836;BME280;57132;51.972;4.450;2023-03-25T02:49:54;99984.28;;;8.38;100.00
69836;BME280;57132;51.972;4.450;2023-03-25T02:52:31;99985.56;;;8.32;100.00
69836;BME280;57132;51.972;4.450;2023-03-25T02:55:00;99977.94;;;8.28;100.00
69836;BME280;57132;51.972;4.450;2023-03-25T02:57:31;99983.34;;;8.26;100.00
69836;BME280;57132;51.972;4.450;2023-03-25T02:59:59;99973.34;;;8.30;100.00
69836;BME280;57132;51.972;4.450;2023-03-25T03:02:28;99970.47;;;8.33;100.00
69836;BME280;57132;51.972;4.450;2023-03-25T03:04:57;99981.44;;;8.28;100.00
69836;BME280;57132;51.972;4.450;2023-03-25T03:07:31;99996.56;;;8.28;100.00
69836;BME280;57132;51.972;4.450;2023-03-25T03:17:57;99953.47;;;7.87;100.00
69836;BME280;57132;51.972;4.450;2023-03-25T03:20:33;99940.28;;;7.86;100.00
69836;BME280;57132;51.972;4.450;2023-03-25T03:23:12;99947.56;;;7.84;100.00
69836;BME280;57132;51.972;4.450;2023-03-25T03:25:54;99961.78;;;7.83;100.00
69836;BME280;57132;51.972;4.450;2023-03-25T03:31:10;99956.91;;;7.77;100.00
69836;BME280;57132;51.972;4.450;2023-03-25T03:33:49;99957.66;;;7.79;100.00
69836;BME280;57132;51.972;4.450;2023-03-25T03:36:27;99942.16;;;7.73;100.00
69836;BME280;57132;51.972;4.450;2023-03-25T03:39:00;99954.06;;;7.67;100.00
69836;BME280;57132;51.972;4.450;2023-03-25T03:41:29;99945.25;;;7.67;100.00
69836;BME280;57132;51.972;4.450;2023-03-25T03:44:12;99949.50;;;7.69;100.00
69836;BME280;57132;51.972;4.450;2023-03-25T03:46:42;99955.44;;;7.73;100.00
69836;BME280;57132;51.972;4.450;2023-03-25T03:49:15;99949.47;;;7.82;100.00
69836;BME280;57132;51.972;4.450;2023-03-25T03:51:48;99956.56;;;7.81;100.00
69836;BME280;57132;51.972;4.450;2023-03-25T03:54:25;99975.19;;;7.81;100.00
69836;BME280;57132;51.972;4.450;2023-03-25T03:56:55;99980.56;;;7.93;100.00
69836;BME280;57132;51.972;4.450;2023-03-25T03:59:41;99967.16;;;7.94;100.00
69836;BME280;57132;51.972;4.450;2023-03-25T04:02:19;99975.34;;;7.91;100.00
69836;BME280;57132;51.972;4.450;2023-03-25T04:04:47;99971.75;;;7.92;100.00
69836;BME280;57132;51.972;4.450;2023-03-25T04:07:18;99969.38;;;8.00;100.00
69836;BME280;57132;51.972;4.450;2023-03-25T04:12:26;99970.44;;;7.98;100.00
69836;BME280;57132;51.972;4.450;2023-03-25T04:14:55;100003.28;;;7.97;100.00
69836;BME280;57132;51.972;4.450;2023-03-25T04:17:21;99963.53;;;7.95;100.00
69836;BME280;57132;51.972;4.450;2023-03-25T04:19:48;99970.56;;;7.96;100.00
69836;BME280;57132;51.972;4.450;2023-03-25T04:22:18;99968.75;;;7.97;100.00
69836;BME280;57132;51.972;4.450;2023-03-25T04:24:44;99990.00;;;7.97;100.00
69836;BME280;57132;51.972;4.450;2023-03-25T04:27:17;99988.06;;;7.99;100.00
69836;BME280;57132;51.972;4.450;2023-03-25T04:29:44;99984.22;;;8.03;100.00
69836;BME280;57132;51.972;4.450;2023-03-25T04:32:11;99969.25;;;8.02;100.00
69836;BME280;57132;51.972;4.450;2023-03-25T04:34:37;99988.19;;;7.97;100.00
69836;BME280;57132;51.972;4.450;2023-03-25T04:37:02;99984.91;;;7.94;100.00
69836;BME280;57132;51.972;4.450;2023-03-25T04:39:28;99978.00;;;7.91;100.00
69836;BME280;57132;51.972;4.450;2023-03-25T04:41:57;100002.31;;;7.98;100.00
69836;BME280;57132;51.972;4.450;2023-03-25T04:44:26;99991.56;;;7.99;100.00
69836;BME280;57132;51.972;4.450;2023-03-25T04:46:53;99992.03;;;7.93;100.00
69836;BME280;57132;51.972;4.450;2023-03-25T04:49:21;99988.75;;;7.89;100.00
69836;BME280;57132;51.972;4.450;2023-03-25T04:51:50;99999.16;;;7.93;100.00
69836;BME280;57132;51.972;4.450;2023-03-25T04:54:17;99990.34;;;7.92;100.00
69836;BME280;57132;51.972;4.450;2023-03-25T04:56:43;99993.84;;;7.93;100.00
69836;BME280;57132;51.972;4.450;2023-03-25T04:59:08;99988.97;;;7.86;100.00
69836;BME280;57132;51.972;4.450;2023-03-25T05:01:35;99984.53;;;7.74;100.00
69836;BME280;57132;51.972;4.450;2023-03-25T05:04:04;99999.63;;;7.74;100.00
69836;BME280;57132;51.972;4.450;2023-03-25T05:06:33;99989.44;;;7.68;100.00
69836;BME280;57132;51.972;4.450;2023-03-25T05:09:00;100014.22;;;7.68;100.00
69836;BME280;57132;51.972;4.450;2023-03-25T05:11:27;100007.03;;;7.57;100.00
69836;BME280;57132;51.972;4.450;2023-03-25T05:13:53;99984.63;;;7.49;100.00
69836;BME280;57132;51.972;4.450;2023-03-25T05:16:19;99985.28;;;7.52;100.00
69836;BME280;57132;51.972;4.450;2023-03-25T05:18:44;99987.59;;;7.57;100.00
69836;BME280;57132;51.972;4.450;2023-03-25T05:21:10;99991.81;;;7.59;100.00
69836;BME280;57132;51.972;4.450;2023-03-25T05:23:35;100000.53;;;7.61;100.00
69836;BME280;57132;51.972;4.450;2023-03-25T05:26:01;99991.59;;;7.62;100.00
69836;BME280;57132;51.972;4.450;2023-03-25T05:28:27;100005.91;;;7.73;100.00
69836;BME280;57132;51.972;4.450;2023-03-25T05:30:53;99999.53;;;7.75;100.00
69836;BME280;57132;51.972;4.450;2023-03-25T05:33:19;100023.44;;;7.75;100.00
69836;BME280;57132;51.972;4.450;2023-03-25T05:35:45;100029.38;;;7.79;100.00
69836;BME280;57132;51.972;4.450;2023-03-25T05:38:11;100009.38;;;7.86;100.00
69836;BME280;57132;51.972;4.450;2023-03-25T05:40:38;100022.44;;;7.89;100.00
69836;BME280;57132;51.972;4.450;2023-03-25T05:43:07;100001.81;;;7.93;100.00
69836;BME280;57132;51.972;4.450;2023-03-25T05:45:33;100037.19;;;7.93;100.00
69836;BME280;57132;51.972;4.450;2023-03-25T05:48:00;100018.38;;;7.96;100.00
69836;BME280;57132;51.972;4.450;2023-03-25T05:50:25;100013.16;;;7.95;100.00
69836;BME280;57132;51.972;4.450;2023-03-25T05:52:52;100016.78;;;7.94;100.00
69836;BME280;57132;51.972;4.450;2023-03-25T05:55:20;100029.84;;;7.97;100.00
69836;BME280;57132;51.972;4.450;2023-03-25T05:57:47;100008.06;;;7.92;100.00
69836;BME280;57132;51.972;4.450;2023-03-25T06:00:13;100014.34;;;7.91;100.00
69836;BME280;57132;51.972;4.450;2023-03-25T06:02:39;100033.06;;;7.89;100.00
69836;BME280;57132;51.972;4.450;2023-03-25T06:05:08;100040.91;;;7.91;100.00
69836;BME280;57132;51.972;4.450;2023-03-25T06:07:36;100034.53;;;7.93;100.00
69836;BME280;57132;51.972;4.450;2023-03-25T06:10:03;100031.03;;;7.93;100.00
69836;BME280;57132;51.972;4.450;2023-03-25T06:12:29;100025.47;;;7.96;100.00
69836;BME280;57132;51.972;4.450;2023-03-25T06:14:57;100035.06;;;7.98;100.00
69836;BME280;57132;51.972;4.450;2023-03-25T06:17:22;100033.16;;;8.00;100.00
69836;BME280;57132;51.972;4.450;2023-03-25T06:19:51;100040.25;;;8.00;100.00
69836;BME280;57132;51.972;4.450;2023-03-25T06:22:17;100034.84;;;8.01;100.00
69836;BME280;57132;51.972;4.450;2023-03-25T06:24:46;100039.19;;;8.02;100.00
69836;BME280;57132;51.972;4.450;2023-03-25T06:27:14;100035.34;;;8.06;100.00
69836;BME280;57132;51.972;4.450;2023-03-25T06:29:40;100042.25;;;8.09;100.00
69836;BME280;57132;51.972;4.450;2023-03-25T06:32:06;100050.09;;;8.10;100.00
69836;BME280;57132;51.972;4.450;2023-03-25T06:34:33;100040.44;;;8.09;100.00
69836;BME280;57132;51.972;4.450;2023-03-25T06:36:59;100048.63;;;8.06;100.00
69836;BME280;57132;51.972;4.450;2023-03-25T06:39:25;100047.78;;;8.06;100.00
69836;BME280;57132;51.972;4.450;2023-03-25T06:41:51;100039.47;;;8.10;100.00
69836;BME280;57132;51.972;4.450;2023-03-25T06:44:17;100055.31;;;8.12;100.00
69836;BME280;57132;51.972;4.450;2023-03-25T06:46:42;100064.09;;;8.25;100.00
69836;BME280;57132;51.972;4.450;2023-03-25T06:49:08;100056.59;;;8.30;100.00
69836;BME280;57132;51.972;4.450;2023-03-25T06:51:34;100051.72;;;8.37;100.00
69836;BME280;57132;51.972;4.450;2023-03-25T06:53:59;100058.91;;;8.35;100.00
69836;BME280;57132;51.972;4.450;2023-03-25T06:56:25;100041.28;;;8.34;100.00
69836;BME280;57132;51.972;4.450;2023-03-25T06:58:50;100062.47;;;8.35;100.00
69836;BME280;57132;51.972;4.450;2023-03-25T07:01:15;100054.44;;;8.48;100.00
69836;BME280;57132;51.972;4.450;2023-03-25T07:03:41;100056.63;;;8.54;100.00
69836;BME280;57132;51.972;4.450;2023-03-25T07:06:14;100101.75;;;8.56;100.00
69836;BME280;57132;51.972;4.450;2023-03-25T07:08:40;100057.59;;;8.53;100.00
69836;BME280;57132;51.972;4.450;2023-03-25T07:11:06;100074.00;;;8.47;100.00
69836;BME280;57132;51.972;4.450;2023-03-25T07:13:32;100070.41;;;8.48;100.00
69836;BME280;57132;51.972;4.450;2023-03-25T07:15:59;100070.28;;;8.50;100.00
69836;BME280;57132;51.972;4.450;2023-03-25T07:18:25;100066.31;;;8.55;100.00
69836;BME280;57132;51.972;4.450;2023-03-25T07:20:50;100056.81;;;8.64;100.00
69836;BME280;57132;51.972;4.450;2023-03-25T07:23:16;100072.53;;;8.67;100.00
69836;BME280;57132;51.972;4.450;2023-03-25T07:25:41;100070.94;;;8.65;100.00
69836;BME280;57132;51.972;4.450;2023-03-25T07:28:07;100088.19;;;8.59;100.00
69836;BME280;57132;51.972;4.450;2023-03-25T07:30:32;100068.63;;;8.60;100.00
69836;BME280;57132;51.972;4.450;2023-03-25T07:32:58;100082.66;;;8.62;100.00
69836;BME280;57132;51.972;4.450;2023-03-25T07:35:23;100078.94;;;8.65;100.00
69836;BME280;57132;51.972;4.450;2023-03-25T07:37:49;100078.09;;;8.64;100.00
69836;BME280;57132;51.972;4.450;2023-03-25T07:40:14;100083.19;;;8.67;100.00
69836;BME280;57132;51.972;4.450;2023-03-25T07:42:40;100074.94;;;8.70;100.00
69836;BME280;57132;51.972;4.450;2023-03-25T07:45:06;100077.25;;;8.75;100.00
69836;BME280;57132;51.972;4.450;2023-03-25T07:47:31;100076.13;;;8.66;100.00
69836;BME280;57132;51.972;4.450;2023-03-25T07:49:57;100089.00;;;8.72;100.00
69836;BME280;57132;51.972;4.450;2023-03-25T07:52:22;100118.31;;;8.83;100.00
69836;BME280;57132;51.972;4.450;2023-03-25T07:54:48;100089.03;;;8.83;100.00
69836;BME280;57132;51.972;4.450;2023-03-25T07:57:13;100117.47;;;8.83;100.00
69836;BME280;57132;51.972;4.450;2023-03-25T07:59:39;100091.69;;;8.83;100.00
69836;BME280;57132;51.972;4.450;2023-03-25T08:02:05;100099.34;;;8.88;100.00
69836;BME280;57132;51.972;4.450;2023-03-25T08:04:30;100112.63;;;8.88;100.00
69836;BME280;57132;51.972;4.450;2023-03-25T08:06:56;100097.66;;;8.87;100.00
69836;BME280;57132;51.972;4.450;2023-03-25T08:09:23;100122.53;;;8.86;100.00
69836;BME280;57132;51.972;4.450;2023-03-25T08:11:48;100121.38;;;9.01;100.00
69836;BME280;57132;51.972;4.450;2023-03-25T08:14:15;100107.91;;;9.27;100.00
69836;BME280;57132;51.972;4.450;2023-03-25T08:16:40;100095.31;;;9.74;100.00
69836;BME280;57132;51.972;4.450;2023-03-25T08:19:06;100097.28;;;9.83;100.00
69836;BME280;57132;51.972;4.450;2023-03-25T08:21:31;100121.00;;;9.52;100.00
69836;BME280;57132;51.972;4.450;2023-03-25T08:23:57;100114.78;;;9.29;100.00
69836;BME280;57132;51.972;4.450;2023-03-25T08:26:27;100116.88;;;9.37;100.00
69836;BME280;57132;51.972;4.450;2023-03-25T08:28:53;100117.63;;;9.61;100.00
69836;BME280;57132;51.972;4.450;2023-03-25T08:31:26;100121.13;;;9.62;100.00
69836;BME280;57132;51.972;4.450;2023-03-25T08:33:59;100130.25;;;9.71;100.00
69836;BME280;57132;51.972;4.450;2023-03-25T08:36:25;100121.13;;;9.84;100.00
69836;BME280;57132;51.972;4.450;2023-03-25T08:38:52;100146.81;;;9.85;100.00
69836;BME280;57132;51.972;4.450;2023-03-25T08:41:18;100122.81;;;9.85;100.00
69836;BME280;57132;51.972;4.450;2023-03-25T08:43:43;100122.97;;;9.95;100.00
69836;BME280;57132;51.972;4.450;2023-03-25T08:46:09;100114.13;;;9.72;100.00
69836;BME280;57132;51.972;4.450;2023-03-25T08:48:35;100145.63;;;9.67;100.00
69836;BME280;57132;51.972;4.450;2023-03-25T08:51:00;100126.47;;;9.84;100.00
69836;BME280;57132;51.972;4.450;2023-03-25T08:53:26;100126.56;;;10.17;100.00
69836;BME280;57132;51.972;4.450;2023-03-25T08:55:53;100139.19;;;10.15;100.00
69836;BME280;57132;51.972;4.450;2023-03-25T08:58:19;100124.53;;;9.87;100.00
69836;BME280;57132;51.972;4.450;2023-03-25T09:00:44;100126.47;;;9.84;100.00
69836;BME280;57132;51.972;4.450;2023-03-25T09:03:10;100131.94;;;9.94;100.00
69836;BME280;57132;51.972;4.450;2023-03-25T09:05:37;100139.91;;;10.05;100.00
69836;BME280;57132;51.972;4.450;2023-03-25T09:08:06;100152.06;;;9.98;100.00
69836;BME280;57132;51.972;4.450;2023-03-25T09:10:32;100147.28;;;10.24;100.00
69836;BME280;57132;51.972;4.450;2023-03-25T09:12:57;100157.84;;;10.15;100.00
69836;BME280;57132;51.972;4.450;2023-03-25T09:15:23;100163.66;;;9.97;100.00
69836;BME280;57132;51.972;4.450;2023-03-25T09:17:48;100166.22;;;9.88;100.00
69836;BME280;57132;51.972;4.450;2023-03-25T09:20:14;100149.38;;;9.98;100.00
69836;BME280;57132;51.972;4.450;2023-03-25T09:22:40;100147.44;;;10.12;100.00
69836;BME280;57132;51.972;4.450;2023-03-25T09:25:06;100160.50;;;10.37;100.00
69836;BME280;57132;51.972;4.450;2023-03-25T09:27:32;100146.88;;;10.63;100.00
69836;BME280;57132;51.972;4.450;2023-03-25T09:29:58;100142.03;;;10.56;100.00
69836;BME280;57132;51.972;4.450;2023-03-25T09:32:24;100149.09;;;10.24;100.00
69836;BME280;57132;51.972;4.450;2023-03-25T09:34:50;100148.63;;;10.19;100.00
69836;BME280;57132;51.972;4.450;2023-03-25T09:37:22;100140.63;;;10.19;100.00
69836;BME280;57132;51.972;4.450;2023-03-25T09:39:47;100151.56;;;10.27;100.00
69836;BME280;57132;51.972;4.450;2023-03-25T09:45:20;100155.47;;;10.66;100.00
69836;BME280;57132;51.972;4.450;2023-03-25T09:48:02;100149.97;;;10.79;100.00
69836;BME280;57132;51.972;4.450;2023-03-25T09:50:30;100166.34;;;10.86;100.00
69836;BME280;57132;51.972;4.450;2023-03-25T09:53:10;100163.84;;;11.26;100.00
69836;BME280;57132;51.972;4.450;2023-03-25T09:55:43;100165.94;;;12.25;100.00
69836;BME280;57132;51.972;4.450;2023-03-25T09:58:27;100171.31;;;11.95;100.00
69836;BME280;57132;51.972;4.450;2023-03-25T10:01:13;100159.53;;;11.14;100.00
69836;BME280;57132;51.972;4.450;2023-03-25T10:04:06;100176.22;;;11.06;100.00
69836;BME280;57132;51.972;4.450;2023-03-25T10:06:42;100195.38;;;10.68;100.00
69836;BME280;57132;51.972;4.450;2023-03-25T10:17:48;100191.06;;;11.20;100.00
69836;BME280;57132;51.972;4.450;2023-03-25T10:20:37;100189.97;;;11.22;100.00
69836;BME280;57132;51.972;4.450;2023-03-25T10:23:10;100186.94;;;11.69;100.00
69836;BME280;57132;51.972;4.450;2023-03-25T10:25:40;100200.00;;;11.09;100.00
69836;BME280;57132;51.972;4.450;2023-03-25T10:28:18;100190.38;;;10.86;100.00
69836;BME280;57132;51.972;4.450;2023-03-25T10:30:50;100221.00;;;10.59;100.00
69836;BME280;57132;51.972;4.450;2023-03-25T10:35:55;100198.66;;;10.71;100.00
69836;BME280;57132;51.972;4.450;2023-03-25T10:38:23;100204.84;;;10.72;100.00
69836;BME280;57132;51.972;4.450;2023-03-25T10:41:01;100204.53;;;10.97;100.00
69836;BME280;57132;51.972;4.450;2023-03-25T10:43:31;100229.06;;;10.91;100.00
69836;BME280;57132;51.972;4.450;2023-03-25T10:48:45;100207.06;;;11.52;100.00
69836;BME280;57132;51.972;4.450;2023-03-25T10:51:13;100218.06;;;11.17;100.00
69836;BME280;57132;51.972;4.450;2023-03-25T10:53:40;100222.69;;;11.36;100.00
69836;BME280;57132;51.972;4.450;2023-03-25T10:56:10;100225.00;;;11.61;100.00
69836;BME280;57132;51.972;4.450;2023-03-25T10:58:38;100230.19;;;11.42;100.00
69836;BME280;57132;51.972;4.450;2023-03-25T11:01:21;100208.31;;;11.69;100.00
69836;BME280;57132;51.972;4.450;2023-03-25T11:03:52;100225.75;;;12.15;100.00
69836;BME280;57132;51.972;4.450;2023-03-25T11:06:24;100211.09;;;12.40;97.13
69836;BME280;57132;51.972;4.450;2023-03-25T11:11:42;100234.00;;;12.73;94.45
69836;BME280;57132;51.972;4.450;2023-03-25T11:14:09;100235.59;;;13.04;92.15
69836;BME280;57132;51.972;4.450;2023-03-25T11:16:43;100234.84;;;11.81;94.32
69836;BME280;57132;51.972;4.450;2023-03-25T11:19:24;100229.06;;;11.23;99.82
69836;BME280;57132;51.972;4.450;2023-03-25T11:22:23;100231.03;;;11.21;100.00
69836;BME280;57132;51.972;4.450;2023-03-25T11:24:48;100247.97;;;10.99;100.00
69836;BME280;57132;51.972;4.450;2023-03-25T11:27:21;100239.28;;;10.86;100.00
69836;BME280;57132;51.972;4.450;2023-03-25T11:29:52;100231.06;;;10.67;100.00
69836;BME280;57132;51.972;4.450;2023-03-25T11:32:30;100233.25;;;10.62;100.00
69836;BME280;57132;51.972;4.450;2023-03-25T11:34:56;100258.31;;;11.57;100.00
69836;BME280;57132;51.972;4.450;2023-03-25T11:37:28;100258.16;;;12.12;100.00
69836;BME280;57132;51.972;4.450;2023-03-25T11:40:05;100255.66;;;11.99;100.00
69836;BME280;57132;51.972;4.450;2023-03-25T11:42:42;100250.44;;;11.76;100.00
69836;BME280;57132;51.972;4.450;2023-03-25T11:45:35;100246.91;;;12.58;99.32
69836;BME280;57132;51.972;4.450;2023-03-25T11:48:14;100252.63;;;12.84;96.08
69836;BME280;57132;51.972;4.450;2023-03-25T11:50:49;100262.03;;;12.07;94.15
69836;BME280;57132;51.972;4.450;2023-03-25T11:53:19;100248.28;;;11.91;95.67
69836;BME280;57132;51.972;4.450;2023-03-25T11:55:49;100245.03;;;11.88;98.79
69836;BME280;57132;51.972;4.450;2023-03-25T11:58:19;100248.44;;;11.90;98.97
69836;BME280;57132;51.972;4.450;2023-03-25T12:00:50;100245.75;;;11.90;96.37
69836;BME280;57132;51.972;4.450;2023-03-25T12:03:22;100239.59;;;11.78;98.85
69836;BME280;57132;51.972;4.450;2023-03-25T12:06:02;100252.47;;;12.05;99.72
69836;BME280;57132;51.972;4.450;2023-03-25T12:08:40;100240.84;;;12.16;98.68
69836;BME280;57132;51.972;4.450;2023-03-25T12:11:11;100240.88;;;12.66;95.68
69836;BME280;57132;51.972;4.450;2023-03-25T12:29:56;100254.00;;;12.07;95.56
69836;BME280;57132;51.972;4.450;2023-03-25T12:35:40;100249.47;;;11.98;99.02
69836;BME280;57132;51.972;4.450;2023-03-25T12:39:00;100248.22;;;12.02;96.44
69836;BME280;57132;51.972;4.450;2023-03-25T12:51:52;100288.66;;;12.09;96.21
69836;BME280;57132;51.972;4.450;2023-03-25T12:57:31;100293.00;;;10.93;100.00
69836;BME280;57132;51.972;4.450;2023-03-25T13:00:08;100289.53;;;10.58;100.00
69836;BME280;57132;51.972;4.450;2023-03-25T13:03:07;100295.09;;;10.33;100.00
69836;BME280;57132;51.972;4.450;2023-03-25T13:05:49;100282.84;;;10.75;100.00
69836;BME280;57132;51.972;4.450;2023-03-25T13:08:35;100280.53;;;10.93;100.00
69836;BME280;57132;51.972;4.450;2023-03-25T13:11:07;100285.94;;;11.03;100.00
69836;BME280;57132;51.972;4.450;2023-03-25T13:13:35;100298.91;;;11.19;100.00
69836;BME280;57132;51.972;4.450;2023-03-25T13:16:10;100299.41;;;11.13;100.00
69836;BME280;57132;51.972;4.450;2023-03-25T13:18:52;100305.00;;;11.10;100.00
69836;BME280;57132;51.972;4.450;2023-03-25T13:21:36;100284.16;;;10.92;100.00
69836;BME280;57132;51.972;4.450;2023-03-25T13:24:23;100312.59;;;10.82;100.00
69836;BME280;57132;51.972;4.450;2023-03-25T13:26:53;100319.13;;;10.33;100.00
69836;BME280;57132;51.972;4.450;2023-03-25T13:31:51;100303.56;;;9.69;100.00
69836;BME280;57132;51.972;4.450;2023-03-25T13:34:57;100293.66;;;9.71;100.00
69836;BME280;57132;51.972;4.450;2023-03-25T13:37:30;100298.66;;;9.87;100.00
69836;BME280;57132;51.972;4.450;2023-03-25T13:40:09;100289.59;;;10.12;100.00
69836;BME280;57132;51.972;4.450;2023-03-25T13:45:30;100309.56;;;10.30;100.00
69836;BME280;57132;51.972;4.450;2023-03-25T13:48:06;100295.81;;;10.80;100.00
69836;BME280;57132;51.972;4.450;2023-03-25T13:50:34;100314.94;;;11.19;100.00
69836;BME280;57132;51.972;4.450;2023-03-25T13:53:14;100305.47;;;11.15;100.00
69836;BME280;57132;51.972;4.450;2023-03-25T14:12:13;100295.47;;;11.28;100.00
69836;BME280;57132;51.972;4.450;2023-03-25T14:14:48;100309.16;;;11.46;100.00
69836;BME280;57132;51.972;4.450;2023-03-25T14:17:16;100333.59;;;11.41;100.00
69836;BME280;57132;51.972;4.450;2023-03-25T14:19:47;100325.25;;;11.55;100.00
69836;BME280;57132;51.972;4.450;2023-03-25T14:22:19;100318.31;;;11.64;100.00
69836;BME280;57132;51.972;4.450;2023-03-25T14:24:46;100318.72;;;11.80;100.00
69836;BME280;57132;51.972;4.450;2023-03-25T14:27:25;100356.41;;;11.77;100.00
69836;BME280;57132;51.972;4.450;2023-03-25T14:29:57;100343.34;;;11.95;100.00
69836;BME280;57132;51.972;4.450;2023-03-25T14:32:29;100349.03;;;11.70;100.00
69836;BME280;57132;51.972;4.450;2023-03-25T14:48:34;100362.16;;;11.18;100.00
69836;BME280;57132;51.972;4.450;2023-03-25T14:54:01;100356.59;;;11.10;100.00
69836;BME280;57132;51.972;4.450;2023-03-25T14:56:35;100368.03;;;11.01;100.00
69836;BME280;57132;51.972;4.450;2023-03-25T14:59:08;100370.34;;;10.94;100.00
69836;BME280;57132;51.972;4.450;2023-03-25T15:01:35;100367.66;;;10.72;100.00
69836;BME280;57132;51.972;4.450;2023-03-25T15:04:14;100374.72;;;10.62;100.00
69836;BME280;57132;51.972;4.450;2023-03-25T15:06:40;100383.91;;;10.46;100.00
69836;BME280;57132;51.972;4.450;2023-03-25T15:09:10;100378.78;;;10.32;100.00